Time;durP1;ratioP1;P1;durP2;ratioP2;P2;SDS_P1;SDS_P2;PMS_P1;PMS_P2;Temp;Humidity;BMP_temperature;BMP_pressure;BME280_temperature;BME280_humidity;BME280_pressure;Samples;Min_cycle;Max_cycle;Signal;HPM_P1;HPM_P2
2022/10/25 00:00:56;;;;;;;4.22;2.00;;;;;19.40;100909.00;;;;5087816;28;20698;-76
2022/10/25 00:03:24;;;;;;;7.20;2.40;;;;;19.40;100912.00;;;;5087129;28;20206;-76
2022/10/25 00:05:51;;;;;;;2.33;1.95;;;;;19.40;100913.00;;;;5087336;28;20220;-76
2022/10/25 00:08:18;;;;;;;3.60;1.88;;;;;19.40;100922.00;;;;5087305;28;20210;-76
2022/10/25 00:10:45;;;;;;;2.92;2.10;;;;;19.40;100919.00;;;;5088028;28;20726;-76
2022/10/25 00:13:13;;;;;;;3.08;2.20;;;;;19.40;100917.00;;;;5088099;28;20195;-76
2022/10/25 00:15:40;;;;;;;4.15;2.00;;;;;19.50;100907.00;;;;5087541;28;20202;-76
2022/10/25 00:18:09;;;;;;;5.03;2.08;;;;;19.50;100912.00;;;;5087771;28;20213;-76
2022/10/25 00:20:37;;;;;;;4.88;2.13;;;;;19.50;100920.00;;;;5087946;28;20207;-76
2022/10/25 00:23:04;;;;;;;4.95;2.25;;;;;19.50;100916.00;;;;5088069;28;20209;-75
2022/10/25 00:25:31;;;;;;;3.75;2.25;;;;;19.50;100924.00;;;;5088158;28;20202;-76
2022/10/25 00:27:58;;;;;;;7.68;2.63;;;;;19.50;100925.00;;;;5087193;28;20230;-76
2022/10/25 00:30:26;;;;;;;4.07;2.20;;;;;19.50;100925.00;;;;5088453;28;20790;-75
2022/10/25 00:32:53;;;;;;;4.28;2.67;;;;;19.60;100921.00;;;;5091975;28;20226;-76
2022/10/25 00:35:22;;;;;;;4.13;2.80;;;;;19.60;100922.00;;;;5091706;28;20202;-77
2022/10/25 00:37:49;;;;;;;3.22;2.05;;;;;19.60;100928.00;;;;5091292;28;20205;-77
2022/10/25 00:40:17;;;;;;;4.25;2.72;;;;;19.60;100930.00;;;;5091173;28;20206;-77
2022/10/25 00:42:45;;;;;;;4.22;2.22;;;;;19.60;100928.00;;;;5091396;28;20217;-77
2022/10/25 00:45:20;;;;;;;3.70;2.28;;;;;19.60;100934.00;;;;5091110;28;20202;-77
2022/10/25 00:47:52;;;;;;;5.25;2.53;;;;;19.60;100943.00;;;;5090524;28;20225;-77
2022/10/25 00:50:32;;;;;;;5.30;2.55;;;;;19.60;100940.00;;;;5090012;28;20213;-77
2022/10/25 00:53:06;;;;;;;6.82;2.13;;;;;19.60;100936.00;;;;5090941;28;20213;-77
2022/10/25 00:55:34;;;;;;;3.33;2.40;;;;;19.70;100946.00;;;;5090900;28;20201;-77
2022/10/25 00:58:06;;;;;;;4.15;2.17;;;;;19.70;100941.00;;;;5090704;28;20679;-77
2022/10/25 01:00:35;;;;;;;4.75;2.63;;;;;19.70;100938.00;;;;5090437;28;20206;-77
2022/10/25 01:03:03;;;;;;;6.00;2.30;;;;;19.80;100942.00;;;;5090835;28;20209;-77
2022/10/25 01:05:32;;;;;;;4.13;2.10;;;;;19.80;100945.00;;;;5090641;28;20276;-77
2022/10/25 01:08:00;;;;;;;4.13;2.72;;;;;19.80;100939.00;;;;5090442;28;20229;-77
2022/10/25 01:10:27;;;;;;;4.72;2.45;;;;;19.80;100938.00;;;;5089655;28;20735;-77
2022/10/25 01:12:55;;;;;;;6.55;2.40;;;;;19.80;100949.00;;;;5090390;28;20610;-75
2022/10/25 01:15:27;;;;;;;4.80;2.22;;;;;19.80;100948.00;;;;5090809;28;20198;-76
2022/10/25 01:18:03;;;;;;;4.63;2.60;;;;;19.80;100944.00;;;;5090504;28;20202;-76
2022/10/25 01:21:11;;;;;;;4.47;2.58;;;;;19.70;100952.00;;;;5089566;28;20194;-76
2022/10/25 01:23:54;;;;;;;3.70;2.20;;;;;19.80;100949.00;;;;5086799;28;20194;-77
2022/10/25 01:26:52;;;;;;;5.47;2.50;;;;;19.80;100963.00;;;;5090360;28;20198;-77
2022/10/25 01:29:36;;;;;;;7.03;2.65;;;;;19.80;100952.00;;;;5069206;28;20603;-77
2022/10/25 01:32:11;;;;;;;6.22;2.63;;;;;19.90;100956.00;;;;5090225;28;20201;-76
2022/10/25 01:34:46;;;;;;;5.50;2.42;;;;;19.90;100967.00;;;;5090030;28;20205;-76
2022/10/25 01:37:22;;;;;;;5.68;2.63;;;;;19.90;100971.00;;;;5089482;28;20194;-75
2022/10/25 01:39:57;;;;;;;2.60;2.00;;;;;20.00;100966.00;;;;5089164;28;20201;-76
2022/10/25 01:42:32;;;;;;;3.90;1.92;;;;;20.00;100966.00;;;;5089715;28;20190;-75
2022/10/25 01:45:08;;;;;;;4.80;1.80;;;;;20.00;100968.00;;;;5089993;28;20209;-75
2022/10/25 01:47:43;;;;;;;3.45;1.80;;;;;20.00;100975.00;;;;5089681;28;20232;-76
2022/10/25 01:50:14;;;;;;;6.45;2.05;;;;;20.00;100973.00;;;;5089197;28;20198;-75
2022/10/25 01:52:41;;;;;;;4.85;2.10;;;;;20.00;100972.00;;;;5089949;28;20190;-75
2022/10/25 01:55:12;;;;;;;11.13;2.08;;;;;20.00;100971.00;;;;5089247;28;20197;-76
2022/10/25 01:58:04;;;;;;;6.13;1.92;;;;;19.90;100972.00;;;;5089612;28;20198;-76
2022/10/25 02:00:39;;;;;;;7.97;2.15;;;;;20.00;100982.00;;;;5089873;28;20202;-76
2022/10/25 02:03:20;;;;;;;8.40;2.38;;;;;20.00;100980.00;;;;5089250;28;20699;-76
2022/10/25 02:05:58;;;;;;;4.95;1.60;;;;;20.00;100978.00;;;;5089105;28;20210;-76
2022/10/25 02:08:33;;;;;;;5.07;1.45;;;;;20.00;100971.00;;;;5088963;28;20228;-76
2022/10/25 02:11:09;;;;;;;5.15;1.60;;;;;20.00;100973.00;;;;5089726;28;20206;-76
2022/10/25 02:13:43;;;;;;;4.47;1.58;;;;;20.00;100985.00;;;;5089481;28;20206;-76
2022/10/25 02:16:15;;;;;;;7.80;2.08;;;;;20.10;100980.00;;;;5089942;28;20198;-76
2022/10/25 02:18:48;;;;;;;2.50;1.63;;;;;20.00;100978.00;;;;5089690;28;20200;-76
2022/10/25 02:21:17;;;;;;;5.43;1.83;;;;;20.10;100983.00;;;;5090089;28;20202;-76
2022/10/25 02:23:45;;;;;;;6.18;1.98;;;;;20.10;100978.00;;;;5089462;28;20194;-76
2022/10/25 02:26:14;;;;;;;4.93;1.42;;;;;20.10;100979.00;;;;5089164;28;20194;-76
2022/10/25 02:28:42;;;;;;;5.55;2.00;;;;;20.10;100978.00;;;;5088961;28;20226;-77
2022/10/25 02:31:12;;;;;;;8.00;2.60;;;;;20.10;100988.00;;;;5089263;28;20203;-76
2022/10/25 02:33:40;;;;;;;4.30;1.80;;;;;20.10;100992.00;;;;5089179;28;20555;-76
2022/10/25 02:36:14;;;;;;;10.82;2.05;;;;;20.00;100986.00;;;;5088358;28;20209;-76
2022/10/25 02:38:42;;;;;;;4.50;1.63;;;;;20.10;100992.00;;;;5089387;28;20210;-76
2022/10/25 02:41:11;;;;;;;5.68;1.80;;;;;20.10;100988.00;;;;5068985;28;20203;-75
2022/10/25 02:43:38;;;;;;;6.60;1.88;;;;;20.10;100987.00;;;;5069043;28;20684;-76
2022/10/25 02:46:06;;;;;;;6.15;1.95;;;;;20.10;100979.00;;;;5068760;28;20207;-76
2022/10/25 02:48:34;;;;;;;5.28;1.58;;;;;20.10;100984.00;;;;5068747;28;20614;-76
2022/10/25 02:51:01;;;;;;;3.20;1.63;;;;;20.10;100993.00;;;;5069458;28;20195;-76
2022/10/25 02:53:30;;;;;;;7.85;2.20;;;;;20.10;100991.00;;;;5068275;28;20233;-75
2022/10/25 02:56:01;;;;;;;4.65;1.85;;;;;20.10;100994.00;;;;5068739;28;20214;-76
2022/10/25 02:58:31;;;;;;;5.75;2.08;;;;;20.10;100991.00;;;;5067936;28;20199;-75
2022/10/25 03:00:59;;;;;;;8.18;2.88;;;;;20.10;100998.00;;;;5068710;28;20199;-75
2022/10/25 03:03:27;;;;;;;5.82;1.83;;;;;20.10;100998.00;;;;5068182;28;20450;-75
2022/10/25 03:05:55;;;;;;;7.95;2.40;;;;;20.10;101000.00;;;;5068171;28;20210;-76
2022/10/25 03:08:23;;;;;;;5.32;1.67;;;;;20.10;101005.00;;;;5067984;28;20230;-76
2022/10/25 03:10:52;;;;;;;11.18;2.40;;;;;20.10;101003.00;;;;5067946;28;20703;-76
2022/10/25 03:13:19;;;;;;;5.78;2.13;;;;;20.10;101005.00;;;;5068335;28;20209;-76
2022/10/25 03:15:47;;;;;;;5.35;1.85;;;;;20.10;101013.00;;;;5068832;28;20203;-76
2022/10/25 03:18:15;;;;;;;3.95;1.50;;;;;20.10;101019.00;;;;5067479;28;20552;-76
2022/10/25 03:20:43;;;;;;;9.40;2.45;;;;;20.10;101012.00;;;;5068385;28;20692;-76
2022/10/25 03:23:11;;;;;;;6.22;2.15;;;;;20.10;101016.00;;;;5068309;28;20202;-75
2022/10/25 03:25:39;;;;;;;5.60;1.98;;;;;20.10;101026.00;;;;5068403;28;20191;-76
2022/10/25 03:28:07;;;;;;;4.13;1.50;;;;;20.10;101019.00;;;;5068481;28;20223;-76
2022/10/25 03:30:35;;;;;;;4.93;2.17;;;;;20.10;101027.00;;;;5068551;28;20214;-76
2022/10/25 03:33:03;;;;;;;3.42;1.30;;;;;20.10;101026.00;;;;5067813;28;20227;-76
2022/10/25 03:35:30;;;;;;;7.03;1.60;;;;;20.10;101034.00;;;;5068121;28;20203;-76
2022/10/25 03:37:57;;;;;;;6.57;1.60;;;;;20.10;101038.00;;;;5068723;28;20419;-76
2022/10/25 03:40:24;;;;;;;5.82;1.58;;;;;20.10;101049.00;;;;5068027;28;20210;-76
2022/10/25 03:42:52;;;;;;;7.05;1.98;;;;;20.10;101040.00;;;;5067508;28;20211;-76
2022/10/25 03:45:21;;;;;;;9.38;2.38;;;;;20.10;101063.00;;;;5068129;28;20202;-75
2022/10/25 03:47:48;;;;;;;10.30;2.28;;;;;20.10;101060.00;;;;5068366;28;20235;-76
2022/10/25 03:50:15;;;;;;;5.03;1.85;;;;;20.10;101057.00;;;;5067852;28;20199;-76
2022/10/25 03:52:43;;;;;;;5.20;1.60;;;;;20.00;101051.00;;;;5067966;28;20229;-76
2022/10/25 03:55:10;;;;;;;6.30;1.80;;;;;20.10;101058.00;;;;5067262;28;20202;-76
2022/10/25 03:57:38;;;;;;;4.30;1.60;;;;;20.10;101064.00;;;;5067971;28;20207;-76
2022/10/25 04:00:06;;;;;;;5.50;1.83;;;;;20.10;101066.00;;;;5068233;28;20584;-76
2022/10/25 04:02:35;;;;;;;3.85;1.88;;;;;20.10;101066.00;;;;5068589;28;20195;-76
2022/10/25 04:05:02;;;;;;;4.85;1.42;;;;;20.10;101070.00;;;;5067703;28;20203;-76
2022/10/25 04:07:29;;;;;;;8.80;2.17;;;;;20.10;101067.00;;;;5071367;28;20218;-76
2022/10/25 04:09:56;;;;;;;4.10;1.77;;;;;20.10;101073.00;;;;5072182;28;20580;-76
2022/10/25 04:12:24;;;;;;;5.45;1.65;;;;;20.10;101078.00;;;;5071535;28;20593;-76
2022/10/25 04:14:51;;;;;;;4.13;1.80;;;;;20.10;101082.00;;;;5071010;28;20199;-76
2022/10/25 04:17:18;;;;;;;4.25;1.67;;;;;20.10;101082.00;;;;5071570;28;20211;-76
2022/10/25 04:19:47;;;;;;;10.38;2.58;;;;;20.10;101075.00;;;;5071661;28;20202;-77
2022/10/25 04:22:14;;;;;;;6.35;2.40;;;;;20.10;101074.00;;;;5071715;28;20423;-77
2022/10/25 04:24:41;;;;;;;3.70;1.83;;;;;20.10;101090.00;;;;5071221;28;20664;-77
2022/10/25 04:27:08;;;;;;;4.93;1.85;;;;;20.10;101091.00;;;;5071829;28;20237;-76
2022/10/25 04:29:36;;;;;;;4.57;1.90;;;;;20.10;101103.00;;;;5071154;28;20223;-76
2022/10/25 04:32:03;;;;;;;3.40;1.42;;;;;20.10;101105.00;;;;5071500;28;20203;-77
2022/10/25 04:34:30;;;;;;;9.55;3.05;;;;;20.10;101104.00;;;;5070981;28;20203;-77
2022/10/25 04:36:59;;;;;;;8.15;2.00;;;;;20.00;101106.00;;;;5071663;28;20554;-77
2022/10/25 04:39:26;;;;;;;7.57;1.88;;;;;20.00;101095.00;;;;5071201;28;20913;-77
2022/10/25 04:41:53;;;;;;;3.33;1.45;;;;;20.00;101092.00;;;;5072025;28;20206;-77
2022/10/25 04:44:20;;;;;;;6.40;2.00;;;;;20.00;101096.00;;;;5071420;28;20281;-77
2022/10/25 04:46:48;;;;;;;7.68;1.75;;;;;20.00;101096.00;;;;5070828;28;20195;-77
2022/10/25 04:49:16;;;;;;;6.05;1.60;;;;;20.00;101109.00;;;;5071022;28;20227;-77
2022/10/25 04:51:43;;;;;;;5.80;1.70;;;;;20.00;101103.00;;;;5071079;28;20207;-77
2022/10/25 04:54:13;;;;;;;3.20;1.50;;;;;19.90;101103.00;;;;5070926;28;20210;-77
2022/10/25 04:56:40;;;;;;;4.93;1.50;;;;;20.00;101111.00;;;;5071368;28;20217;-77
2022/10/25 04:59:08;;;;;;;9.63;1.67;;;;;19.90;101114.00;;;;5071217;28;20195;-77
2022/10/25 05:01:36;;;;;;;5.40;2.03;;;;;19.90;101121.00;;;;5070369;28;20199;-77
2022/10/25 05:04:03;;;;;;;5.00;1.63;;;;;19.90;101124.00;;;;5071487;28;20198;-77
2022/10/25 05:06:30;;;;;;;5.22;1.48;;;;;19.90;101129.00;;;;5070915;28;20199;-77
2022/10/25 05:08:58;;;;;;;5.13;1.20;;;;;19.80;101128.00;;;;5070724;28;20231;-76
2022/10/25 05:11:26;;;;;;;3.63;1.38;;;;;19.80;101126.00;;;;5070302;28;20668;-77
2022/10/25 05:13:53;;;;;;;5.43;2.25;;;;;19.80;101121.00;;;;5070671;28;20209;-77
2022/10/25 05:16:24;;;;;;;4.65;1.48;;;;;19.80;101122.00;;;;5069985;28;20587;-77
2022/10/25 05:18:54;;;;;;;3.33;1.67;;;;;19.80;101130.00;;;;5070812;28;20210;-77
2022/10/25 05:21:23;;;;;;;6.03;1.40;;;;;19.80;101126.00;;;;5069762;28;20575;-77
2022/10/25 05:23:51;;;;;;;4.05;1.35;;;;;19.70;101128.00;;;;5070570;28;20229;-77
2022/10/25 05:26:20;;;;;;;5.60;1.92;;;;;19.70;101129.00;;;;5070414;28;20856;-77
2022/10/25 05:28:51;;;;;;;1.63;1.00;;;;;19.70;101128.00;;;;5070413;28;20223;-77
2022/10/25 05:31:20;;;;;;;4.03;1.20;;;;;19.70;101135.00;;;;5070495;28;20213;-77
2022/10/25 05:33:50;;;;;;;6.78;2.00;;;;;19.70;101151.00;;;;5069777;28;20632;-77
2022/10/25 05:36:18;;;;;;;2.67;1.60;;;;;19.70;101138.00;;;;5069033;28;20681;-77
2022/10/25 05:38:46;;;;;;;4.45;1.60;;;;;19.70;101140.00;;;;5069618;28;20211;-77
2022/10/25 05:41:15;;;;;;;3.53;1.58;;;;;19.70;101140.00;;;;5069642;28;20736;-77
2022/10/25 05:43:43;;;;;;;4.88;2.00;;;;;19.70;101149.00;;;;5069948;28;20199;-76
2022/10/25 05:46:14;;;;;;;8.13;1.70;;;;;19.70;101151.00;;;;5069026;28;20195;-77
2022/10/25 05:48:42;;;;;;;5.70;1.83;;;;;19.70;101143.00;;;;5069382;28;20230;-77
2022/10/25 05:51:14;;;;;;;5.55;1.67;;;;;19.70;101143.00;;;;5069410;28;20703;-77
2022/10/25 05:53:46;;;;;;;7.07;1.75;;;;;19.60;101143.00;;;;5069202;28;20676;-77
2022/10/25 05:56:13;;;;;;;3.10;1.48;;;;;19.70;101146.00;;;;5068987;28;20206;-77
2022/10/25 05:58:41;;;;;;;3.85;1.98;;;;;19.70;101153.00;;;;5068450;28;20203;-77
2022/10/25 06:01:09;;;;;;;6.38;2.20;;;;;19.70;101162.00;;;;5068643;28;20208;-77
2022/10/25 06:03:38;;;;;;;3.20;1.65;;;;;19.70;101162.00;;;;5068817;28;20202;-76
2022/10/25 06:06:07;;;;;;;6.50;1.90;;;;;19.70;101164.00;;;;5069190;28;20269;-77
2022/10/25 06:08:35;;;;;;;6.03;2.10;;;;;19.70;101167.00;;;;5068878;28;20584;-77
2022/10/25 06:11:04;;;;;;;3.28;1.70;;;;;19.70;101172.00;;;;5068950;28;20202;-77
2022/10/25 06:13:31;;;;;;;4.22;1.75;;;;;19.70;101173.00;;;;5068802;28;20203;-77
2022/10/25 06:15:59;;;;;;;4.18;2.30;;;;;19.70;101178.00;;;;5069451;28;20207;-77
2022/10/25 06:18:26;;;;;;;3.83;1.73;;;;;19.70;101174.00;;;;5069139;28;20594;-77
2022/10/25 06:20:55;;;;;;;6.28;2.47;;;;;19.70;101187.00;;;;5069028;28;20211;-77
2022/10/25 06:23:22;;;;;;;4.60;2.28;;;;;19.70;101193.00;;;;5068025;28;20218;-76
2022/10/25 06:25:49;;;;;;;4.32;2.13;;;;;19.70;101196.00;;;;5068557;28;20207;-75
2022/10/25 06:28:17;;;;;;;7.03;2.75;;;;;19.70;101195.00;;;;5067191;28;20237;-75
2022/10/25 06:30:44;;;;;;;3.63;2.30;;;;;19.70;101198.00;;;;5068534;28;20219;-75
2022/10/25 06:33:11;;;;;;;4.50;2.38;;;;;19.70;101201.00;;;;5067861;28;20230;-75
2022/10/25 06:35:38;;;;;;;4.38;2.33;;;;;19.70;101214.00;;;;5068369;28;20199;-75
2022/10/25 06:38:07;;;;;;;3.95;2.40;;;;;19.70;101221.00;;;;5069036;28;20691;-75
2022/10/25 06:40:35;;;;;;;4.55;2.50;;;;;19.70;101219.00;;;;5068557;28;20203;-75
2022/10/25 06:43:02;;;;;;;4.05;2.75;;;;;19.70;101219.00;;;;5069142;28;20230;-75
2022/10/25 06:45:29;;;;;;;2.70;2.15;;;;;19.70;101217.00;;;;5068903;28;20668;-75
2022/10/25 06:47:57;;;;;;;5.47;2.30;;;;;19.70;101221.00;;;;5068552;28;20203;-76
2022/10/25 06:50:24;;;;;;;6.38;2.70;;;;;19.70;101216.00;;;;5068138;28;20203;-76
2022/10/25 06:52:51;;;;;;;3.17;2.20;;;;;19.60;101216.00;;;;5068557;28;20199;-76
2022/10/25 06:55:20;;;;;;;4.75;2.95;;;;;19.60;101221.00;;;;5067748;28;20199;-75
2022/10/25 06:57:47;;;;;;;4.88;2.25;;;;;19.60;101221.00;;;;5067844;28;20214;-75
2022/10/25 07:00:15;;;;;;;5.85;2.35;;;;;19.60;101224.00;;;;5067780;28;20209;-75
2022/10/25 07:02:42;;;;;;;4.38;2.38;;;;;19.60;101225.00;;;;5067785;28;20206;-75
2022/10/25 07:05:09;;;;;;;4.30;2.42;;;;;19.60;101231.00;;;;5067532;28;20199;-76
2022/10/25 07:07:37;;;;;;;3.58;2.15;;;;;19.60;101229.00;;;;5068178;28;20199;-76
2022/10/25 07:10:04;;;;;;;4.07;2.38;;;;;19.60;101231.00;;;;5068525;28;20238;-76
2022/10/25 07:12:36;;;;;;;3.92;2.42;;;;;19.60;101234.00;;;;5068091;28;20682;-76
2022/10/25 07:15:04;;;;;;;4.18;2.40;;;;;19.60;101236.00;;;;5068279;28;20203;-76
2022/10/25 07:17:32;;;;;;;6.03;2.25;;;;;19.60;101240.00;;;;5068474;28;20222;-76
2022/10/25 07:19:59;;;;;;;5.03;2.15;;;;;19.60;101243.00;;;;5067708;28;20206;-75
2022/10/25 07:22:27;;;;;;;4.30;2.47;;;;;19.70;101247.00;;;;5068307;28;20229;-76
2022/10/25 07:24:54;;;;;;;5.60;2.88;;;;;19.60;101254.00;;;;5067747;28;20213;-76
2022/10/25 07:27:21;;;;;;;7.38;3.00;;;;;19.60;101249.00;;;;5066681;28;20203;-76
2022/10/25 07:29:50;;;;;;;3.13;2.55;;;;;19.60;101249.00;;;;5067890;28;20226;-75
2022/10/25 07:32:17;;;;;;;6.65;2.72;;;;;19.60;101253.00;;;;5067540;28;20202;-76
2022/10/25 07:34:44;;;;;;;6.90;2.90;;;;;19.60;101256.00;;;;5068123;28;20198;-76
2022/10/25 07:37:12;;;;;;;4.63;2.95;;;;;19.70;101258.00;;;;5067935;28;20199;-76
2022/10/25 07:39:39;;;;;;;3.13;2.72;;;;;19.70;101260.00;;;;5068797;28;20206;-76
2022/10/25 07:42:06;;;;;;;5.95;3.08;;;;;19.70;101257.00;;;;5074313;28;20191;-76
2022/10/25 07:44:33;;;;;;;5.05;3.45;;;;;19.70;101261.00;;;;5074336;28;20187;-76
2022/10/25 07:47:02;;;;;;;4.25;3.08;;;;;19.70;101260.00;;;;5074701;28;20210;-76
2022/10/25 07:49:29;;;;;;;7.95;2.85;;;;;19.70;101259.00;;;;5074562;28;20229;-76
2022/10/25 07:51:56;;;;;;;5.53;3.58;;;;;19.80;101272.00;;;;5074076;28;20202;-76
2022/10/25 07:54:24;;;;;;;5.43;2.90;;;;;19.80;101273.00;;;;5074559;28;20206;-76
2022/10/25 07:56:51;;;;;;;5.30;2.90;;;;;19.80;101275.00;;;;5075095;28;20198;-76
2022/10/25 07:59:19;;;;;;;5.43;3.25;;;;;19.90;101275.00;;;;5074498;28;20669;-75
2022/10/25 08:01:46;;;;;;;3.33;2.85;;;;;19.90;101280.00;;;;5073864;28;20216;-76
2022/10/25 08:04:16;;;;;;;4.18;2.80;;;;;19.90;101285.00;;;;5074987;28;20187;-76
2022/10/25 08:06:43;;;;;;;7.10;2.67;;;;;20.00;101287.00;;;;5075035;28;20194;-76
2022/10/25 08:09:10;;;;;;;4.05;3.15;;;;;20.00;101288.00;;;;5074692;28;20226;-76
2022/10/25 08:11:38;;;;;;;5.40;3.03;;;;;20.00;101296.00;;;;5073852;28;20203;-76
2022/10/25 08:14:05;;;;;;;6.07;3.50;;;;;20.00;101293.00;;;;5074903;28;20199;-76
2022/10/25 08:16:32;;;;;;;5.20;3.40;;;;;20.10;101293.00;;;;5075146;28;20207;-75
2022/10/25 08:18:59;;;;;;;3.42;2.95;;;;;20.10;101290.00;;;;5074994;28;20646;-75
2022/10/25 08:21:28;;;;;;;7.45;4.25;;;;;20.10;101287.00;;;;5074842;28;20490;-76
2022/10/25 08:23:55;;;;;;;11.30;4.10;;;;;20.10;101303.00;;;;5074417;28;20199;-75
2022/10/25 08:26:25;;;;;;;5.55;3.10;;;;;20.10;101294.00;;;;5074360;28;20190;-76
2022/10/25 08:28:52;;;;;;;9.13;3.38;;;;;20.10;101290.00;;;;5074180;28;20495;-75
2022/10/25 08:31:19;;;;;;;4.18;3.38;;;;;20.10;101302.00;;;;5074483;28;20688;-76
2022/10/25 08:33:47;;;;;;;6.05;3.20;;;;;20.10;101300.00;;;;5074066;28;20238;-76
2022/10/25 08:36:14;;;;;;;3.63;3.10;;;;;20.20;101303.00;;;;5073581;28;20703;-76
2022/10/25 08:38:43;;;;;;;4.60;3.20;;;;;20.20;101304.00;;;;5074545;28;20194;-76
2022/10/25 08:41:17;;;;;;;5.70;3.25;;;;;20.20;101300.00;;;;5074421;28;20201;-76
2022/10/25 08:44:04;;;;;;;4.85;3.08;;;;;20.10;101307.00;;;;5074421;28;20201;-76
2022/10/25 08:46:35;;;;;;;4.75;3.75;;;;;20.20;101308.00;;;;5073996;28;20273;-75
2022/10/25 08:49:13;;;;;;;4.50;3.30;;;;;20.20;101311.00;;;;5074335;28;20590;-76
2022/10/25 08:51:44;;;;;;;7.75;3.80;;;;;20.20;101315.00;;;;5071907;28;20201;-76
2022/10/25 08:54:22;;;;;;;4.13;3.13;;;;;20.20;101319.00;;;;5070791;28;20203;-76
2022/10/25 08:56:52;;;;;;;5.32;3.35;;;;;20.30;101322.00;;;;5071171;28;20209;-76
2022/10/25 08:59:28;;;;;;;4.97;3.72;;;;;20.30;101332.00;;;;5070144;28;20276;-76
2022/10/25 09:01:58;;;;;;;5.85;3.33;;;;;20.30;101335.00;;;;5070700;28;20199;-76
2022/10/25 09:04:26;;;;;;;4.80;3.47;;;;;20.30;101333.00;;;;5070113;28;20206;-76
2022/10/25 09:07:06;;;;;;;5.00;3.30;;;;;20.30;101336.00;;;;5070522;28;20206;-75
2022/10/25 09:09:43;;;;;;;4.55;3.45;;;;;20.40;101342.00;;;;5069850;28;20226;-76
2022/10/25 09:12:19;;;;;;;5.13;3.58;;;;;20.40;101341.00;;;;5069833;28;20194;-76
2022/10/25 09:14:54;;;;;;;5.40;4.15;;;;;20.40;101345.00;;;;5069946;28;20203;-76
2022/10/25 09:17:22;;;;;;;5.72;3.88;;;;;20.50;101352.00;;;;5069935;28;20198;-76
2022/10/25 09:20:04;;;;;;;5.03;3.80;;;;;20.40;101351.00;;;;5070301;28;20191;-76
2022/10/25 09:22:41;;;;;;;4.18;3.75;;;;;20.60;101356.00;;;;5069612;28;20657;-76
2022/10/25 09:25:18;;;;;;;5.50;3.85;;;;;20.60;101365.00;;;;5069284;28;20206;-76
2022/10/25 09:27:54;;;;;;;7.53;4.18;;;;;20.60;101364.00;;;;5070154;28;20214;-76
2022/10/25 09:30:22;;;;;;;6.13;4.18;;;;;20.70;101355.00;;;;5068913;28;20226;-76
2022/10/25 09:32:52;;;;;;;10.18;4.40;;;;;20.70;101355.00;;;;5069645;28;20238;-75
2022/10/25 09:35:24;;;;;;;6.00;4.10;;;;;20.80;101348.00;;;;5069253;28;20203;-76
2022/10/25 09:37:57;;;;;;;4.68;4.07;;;;;20.80;101359.00;;;;5069919;28;20210;-76
2022/10/25 09:40:29;;;;;;;6.75;3.20;;;;;20.80;101360.00;;;;5069361;28;20211;-76
2022/10/25 09:43:01;;;;;;;4.32;3.38;;;;;20.80;101357.00;;;;5069352;28;20695;-76
2022/10/25 09:45:33;;;;;;;4.20;3.33;;;;;20.90;101356.00;;;;5069323;28;20203;-76
2022/10/25 09:48:07;;;;;;;5.18;3.65;;;;;20.90;101368.00;;;;5069987;28;20538;-76
2022/10/25 09:50:44;;;;;;;7.88;3.95;;;;;21.00;101367.00;;;;5068754;28;20610;-76
2022/10/25 09:53:13;;;;;;;7.90;2.95;;;;;21.00;101370.00;;;;5069454;28;20199;-76
2022/10/25 09:55:50;;;;;;;5.70;3.55;;;;;21.00;101376.00;;;;5069179;28;20213;-76
2022/10/25 09:58:21;;;;;;;4.00;3.60;;;;;21.00;101368.00;;;;5069379;28;20572;-76
2022/10/25 10:00:51;;;;;;;4.20;3.40;;;;;21.10;101376.00;;;;5069081;28;20214;-76
2022/10/25 10:03:19;;;;;;;4.95;3.15;;;;;21.10;101378.00;;;;5066689;28;20203;-76
2022/10/25 10:05:52;;;;;;;7.40;4.18;;;;;21.20;101385.00;;;;5068832;28;20202;-76
2022/10/25 10:08:19;;;;;;;4.85;3.78;;;;;21.30;101387.00;;;;5069388;28;20310;-75
2022/10/25 10:10:50;;;;;;;4.93;3.08;;;;;21.30;101395.00;;;;5069111;28;20683;-76
2022/10/25 10:13:23;;;;;;;5.35;3.75;;;;;21.40;101391.00;;;;5069084;28;20202;-76
2022/10/25 10:15:55;;;;;;;4.78;3.72;;;;;21.40;101389.00;;;;5068873;28;20195;-76
2022/10/25 10:18:31;;;;;;;5.63;3.88;;;;;21.50;101382.00;;;;5069118;28;20187;-76
2022/10/25 10:21:03;;;;;;;5.22;4.10;;;;;21.60;101389.00;;;;5069408;28;20186;-76
2022/10/25 10:23:32;;;;;;;7.80;4.90;;;;;21.60;101389.00;;;;5069172;28;20198;-76
2022/10/25 10:26:08;;;;;;;8.43;4.53;;;;;21.70;101391.00;;;;5068840;28;20680;-76
2022/10/25 10:28:36;;;;;;;5.63;3.78;;;;;21.80;101394.00;;;;5068407;28;20206;-76
2022/10/25 10:31:07;;;;;;;5.47;4.15;;;;;21.80;101402.00;;;;5068759;28;20628;-76
2022/10/25 10:33:34;;;;;;;5.55;4.18;;;;;21.90;101397.00;;;;5068652;28;20230;-76
2022/10/25 10:36:24;;;;;;;5.60;4.00;;;;;21.90;101394.00;;;;5068923;28;20229;-76
2022/10/25 10:38:51;;;;;;;6.45;4.40;;;;;22.10;101401.00;;;;5068079;28;20560;-76
2022/10/25 10:41:25;;;;;;;5.65;4.18;;;;;22.10;101399.00;;;;5067939;28;20203;-76
2022/10/25 10:44:08;;;;;;;4.40;3.63;;;;;22.10;101405.00;;;;5068357;28;20217;-75
2022/10/25 10:46:35;;;;;;;5.32;4.32;;;;;22.30;101413.00;;;;5068717;28;20279;-76
2022/10/25 10:49:03;;;;;;;5.15;4.60;;;;;22.30;101405.00;;;;5069330;28;20203;-76
2022/10/25 10:51:40;;;;;;;9.30;4.95;;;;;22.20;101414.00;;;;5068267;28;20254;-76
2022/10/25 10:54:23;;;;;;;6.95;4.53;;;;;22.20;101407.00;;;;5068731;28;20247;-76
2022/10/25 10:56:56;;;;;;;6.13;4.25;;;;;22.30;101424.00;;;;5068105;28;20589;-76
2022/10/25 10:59:33;;;;;;;5.95;3.92;;;;;22.40;101410.00;;;;5068644;28;20199;-76
2022/10/25 11:02:22;;;;;;;10.48;4.75;;;;;22.40;101412.00;;;;5068966;28;20202;-76
2022/10/25 11:04:50;;;;;;;5.78;4.40;;;;;22.60;101413.00;;;;5068117;28;20210;-76
2022/10/25 11:07:32;;;;;;;7.43;4.20;;;;;22.50;101410.00;;;;5067454;28;20221;-77
2022/10/25 11:10:23;;;;;;;4.93;4.40;;;;;22.60;101412.00;;;;5068504;28;20734;-76
2022/10/25 11:13:18;;;;;;;6.32;4.03;;;;;22.60;101410.00;;;;5068377;28;20207;-76
2022/10/25 11:16:10;;;;;;;5.72;3.83;;;;;22.70;101411.00;;;;5068026;28;20194;-76
2022/10/25 11:18:48;;;;;;;5.13;3.40;;;;;22.90;101426.00;;;;5067868;28;20695;-76
2022/10/25 11:21:30;;;;;;;4.78;3.30;;;;;22.90;101421.00;;;;5068213;28;20202;-76
2022/10/25 11:24:08;;;;;;;6.82;3.42;;;;;23.10;101419.00;;;;5068543;28;20203;-76
2022/10/25 11:26:49;;;;;;;4.63;3.20;;;;;23.20;101431.00;;;;5068407;28;20203;-75
2022/10/25 11:29:29;;;;;;;4.03;3.20;;;;;23.20;101430.00;;;;5067927;28;20223;-76
2022/10/25 11:32:05;;;;;;;4.28;2.92;;;;;23.30;101420.00;;;;5067852;28;20213;-76
2022/10/25 11:34:37;;;;;;;4.00;3.17;;;;;23.40;101425.00;;;;5068487;28;20198;-76
2022/10/25 11:37:19;;;;;;;6.97;3.65;;;;;23.40;101427.00;;;;5068355;28;20225;-76
2022/10/25 11:39:58;;;;;;;7.60;2.88;;;;;23.50;101427.00;;;;5068325;28;20203;-76
2022/10/25 11:42:55;;;;;;;7.10;3.53;;;;;23.40;101427.00;;;;5068112;28;20211;-76
2022/10/25 11:45:41;;;;;;;5.72;3.20;;;;;23.40;101422.00;;;;5066494;28;20209;-76
2022/10/25 11:48:35;;;;;;;5.40;3.60;;;;;23.40;101423.00;;;;5067849;28;20210;-76
2022/10/25 11:51:10;;;;;;;4.80;3.38;;;;;23.40;101416.00;;;;5068089;28;20219;-75
2022/10/25 11:54:06;;;;;;;5.28;3.65;;;;;23.40;101424.00;;;;5067883;28;20194;-76
2022/10/25 11:56:41;;;;;;;6.28;3.50;;;;;23.40;101418.00;;;;5067482;28;20206;-76
2022/10/25 11:59:15;;;;;;;5.82;3.78;;;;;23.50;101429.00;;;;5067864;28;20213;-75
2022/10/25 12:01:57;;;;;;;6.68;3.95;;;;;23.50;101424.00;;;;5068181;28;20213;-75
2022/10/25 12:04:52;;;;;;;4.60;3.72;;;;;23.50;101418.00;;;;5067936;28;20203;-75
2022/10/25 12:07:24;;;;;;;5.53;4.32;;;;;23.60;101421.00;;;;5064455;28;20202;-75
2022/10/25 12:10:03;;;;;;;4.78;4.15;;;;;23.50;101420.00;;;;5068068;28;20206;-75
2022/10/25 12:12:39;;;;;;;5.22;3.58;;;;;23.60;101425.00;;;;5067742;28;20206;-75
2022/10/25 12:15:12;;;;;;;4.72;3.85;;;;;23.60;101423.00;;;;5067367;28;20977;-76
2022/10/25 12:17:41;;;;;;;7.18;4.22;;;;;23.70;101421.00;;;;5068065;28;20199;-76
2022/10/25 12:20:19;;;;;;;7.55;4.15;;;;;23.70;101418.00;;;;5067871;28;20199;-76
2022/10/25 12:22:50;;;;;;;6.00;3.63;;;;;23.80;101423.00;;;;5067842;28;20370;-76
2022/10/25 12:25:23;;;;;;;6.18;4.10;;;;;23.90;101426.00;;;;5067550;28;20207;-76
2022/10/25 12:27:59;;;;;;;6.45;4.28;;;;;23.90;101432.00;;;;5069986;28;20600;-76